sensor_id;sensor_type;location;lat;lon;timestamp;temperature;humidity
64939;DHT22;51453;47.738;7.420;2023-06-22T00:00:52;21.40;99.90
64939;DHT22;51453;47.738;7.420;2023-06-22T00:03:19;21.40;99.90
64939;DHT22;51453;47.738;7.420;2023-06-22T00:05:46;21.40;99.90
64939;DHT22;51453;47.738;7.420;2023-06-22T00:08:12;21.30;99.90
64939;DHT22;51453;47.738;7.420;2023-06-22T00:10:38;21.30;99.90
64939;DHT22;51453;47.738;7.420;2023-06-22T00:13:04;21.30;99.90
64939;DHT22;51453;47.738;7.420;2023-06-22T00:15:30;21.30;99.90
64939;DHT22;51453;47.738;7.420;2023-06-22T00:17:56;21.20;99.90
64939;DHT22;51453;47.738;7.420;2023-06-22T00:20:23;21.20;99.90
64939;DHT22;51453;47.738;7.420;2023-06-22T00:22:56;21.20;99.90
64939;DHT22;51453;47.738;7.420;2023-06-22T00:25:22;21.10;99.90
64939;DHT22;51453;47.738;7.420;2023-06-22T00:27:48;21.10;99.90
64939;DHT22;51453;47.738;7.420;2023-06-22T00:30:18;21.10;99.90
64939;DHT22;51453;47.738;7.420;2023-06-22T00:32:45;21.10;99.90
64939;DHT22;51453;47.738;7.420;2023-06-22T00:35:12;21.00;99.90
64939;DHT22;51453;47.738;7.420;2023-06-22T00:37:38;21.00;99.90
64939;DHT22;51453;47.738;7.420;2023-06-22T00:40:11;21.00;99.90
64939;DHT22;51453;47.738;7.420;2023-06-22T00:42:38;21.00;99.90
64939;DHT22;51453;47.738;7.420;2023-06-22T00:45:05;21.00;99.90
64939;DHT22;51453;47.738;7.420;2023-06-22T00:47:31;21.00;99.90
64939;DHT22;51453;47.738;7.420;2023-06-22T00:49:58;21.00;99.90
64939;DHT22;51453;47.738;7.420;2023-06-22T00:52:24;20.90;99.90
64939;DHT22;51453;47.738;7.420;2023-06-22T00:54:55;20.90;99.90
64939;DHT22;51453;47.738;7.420;2023-06-22T00:57:22;20.90;99.90
64939;DHT22;51453;47.738;7.420;2023-06-22T00:59:51;20.90;99.90
64939;DHT22;51453;47.738;7.420;2023-06-22T01:02:16;20.90;99.90
64939;DHT22;51453;47.738;7.420;2023-06-22T01:04:42;20.80;99.90
64939;DHT22;51453;47.738;7.420;2023-06-22T01:07:39;20.80;99.90
64939;DHT22;51453;47.738;7.420;2023-06-22T01:10:27;20.80;99.90
64939;DHT22;51453;47.738;7.420;2023-06-22T01:12:58;20.80;99.90
64939;DHT22;51453;47.738;7.420;2023-06-22T01:15:33;20.80;99.90
64939;DHT22;51453;47.738;7.420;2023-06-22T01:18:04;20.80;99.90
64939;DHT22;51453;47.738;7.420;2023-06-22T01:20:31;20.90;99.90
64939;DHT22;51453;47.738;7.420;2023-06-22T01:23:09;21.00;99.90
64939;DHT22;51453;47.738;7.420;2023-06-22T01:25:57;21.00;99.90
64939;DHT22;51453;47.738;7.420;2023-06-22T01:31:14;21.00;99.90
64939;DHT22;51453;47.738;7.420;2023-06-22T01:33:43;21.10;99.90
64939;DHT22;51453;47.738;7.420;2023-06-22T01:36:09;21.10;99.90
64939;DHT22;51453;47.738;7.420;2023-06-22T01:38:37;21.10;99.90
64939;DHT22;51453;47.738;7.420;2023-06-22T01:41:04;21.00;99.90
64939;DHT22;51453;47.738;7.420;2023-06-22T01:43:30;21.00;99.90
64939;DHT22;51453;47.738;7.420;2023-06-22T01:45:57;21.10;99.90
64939;DHT22;51453;47.738;7.420;2023-06-22T01:48:23;21.10;99.90
64939;DHT22;51453;47.738;7.420;2023-06-22T01:50:49;21.10;99.90
64939;DHT22;51453;47.738;7.420;2023-06-22T01:53:15;21.10;99.90
64939;DHT22;51453;47.738;7.420;2023-06-22T01:55:40;21.10;99.90
64939;DHT22;51453;47.738;7.420;2023-06-22T01:58:06;21.10;99.90
64939;DHT22;51453;47.738;7.420;2023-06-22T02:00:36;21.10;99.90
64939;DHT22;51453;47.738;7.420;2023-06-22T02:03:09;21.10;99.90
64939;DHT22;51453;47.738;7.420;2023-06-22T02:05:38;21.00;99.90
64939;DHT22;51453;47.738;7.420;2023-06-22T02:08:11;21.00;99.90
64939;DHT22;51453;47.738;7.420;2023-06-22T02:10:42;21.00;99.90
64939;DHT22;51453;47.738;7.420;2023-06-22T02:13:10;21.00;99.90
64939;DHT22;51453;47.738;7.420;2023-06-22T02:15:36;21.00;99.90
64939;DHT22;51453;47.738;7.420;2023-06-22T02:18:02;20.90;99.90
64939;DHT22;51453;47.738;7.420;2023-06-22T02:20:28;20.90;99.90
64939;DHT22;51453;47.738;7.420;2023-06-22T02:22:54;20.90;99.90
64939;DHT22;51453;47.738;7.420;2023-06-22T02:25:19;20.90;99.90
64939;DHT22;51453;47.738;7.420;2023-06-22T02:27:45;20.80;99.90
64939;DHT22;51453;47.738;7.420;2023-06-22T02:30:12;20.80;99.90
64939;DHT22;51453;47.738;7.420;2023-06-22T02:32:37;20.70;99.90
64939;DHT22;51453;47.738;7.420;2023-06-22T02:35:08;20.70;99.90
64939;DHT22;51453;47.738;7.420;2023-06-22T02:37:36;20.60;99.90
64939;DHT22;51453;47.738;7.420;2023-06-22T02:40:05;20.50;99.90
64939;DHT22;51453;47.738;7.420;2023-06-22T02:42:32;20.50;99.90
64939;DHT22;51453;47.738;7.420;2023-06-22T02:44:58;20.40;99.90
64939;DHT22;51453;47.738;7.420;2023-06-22T02:47:24;20.40;99.90
64939;DHT22;51453;47.738;7.420;2023-06-22T02:49:49;20.40;99.90
64939;DHT22;51453;47.738;7.420;2023-06-22T02:52:15;20.30;99.90
64939;DHT22;51453;47.738;7.420;2023-06-22T02:54:41;20.30;99.90
64939;DHT22;51453;47.738;7.420;2023-06-22T02:57:06;20.20;99.90
64939;DHT22;51453;47.738;7.420;2023-06-22T02:59:32;20.20;99.90
64939;DHT22;51453;47.738;7.420;2023-06-22T03:01:58;20.10;99.90
64939;DHT22;51453;47.738;7.420;2023-06-22T03:04:23;20.10;99.90
64939;DHT22;51453;47.738;7.420;2023-06-22T03:06:49;20.10;99.90
64939;DHT22;51453;47.738;7.420;2023-06-22T03:09:16;20.10;99.90
64939;DHT22;51453;47.738;7.420;2023-06-22T03:11:42;20.00;99.90
64939;DHT22;51453;47.738;7.420;2023-06-22T03:14:08;20.10;99.90
64939;DHT22;51453;47.738;7.420;2023-06-22T03:16:34;20.00;99.90
64939;DHT22;51453;47.738;7.420;2023-06-22T03:18:59;20.00;99.90
64939;DHT22;51453;47.738;7.420;2023-06-22T03:21:28;19.90;99.90
64939;DHT22;51453;47.738;7.420;2023-06-22T03:23:54;20.00;99.90
64939;DHT22;51453;47.738;7.420;2023-06-22T03:26:19;19.90;99.90
64939;DHT22;51453;47.738;7.420;2023-06-22T03:28:46;19.90;99.90
64939;DHT22;51453;47.738;7.420;2023-06-22T03:31:11;19.90;99.90
64939;DHT22;51453;47.738;7.420;2023-06-22T03:33:37;19.90;99.90
64939;DHT22;51453;47.738;7.420;2023-06-22T03:36:03;19.90;99.90
64939;DHT22;51453;47.738;7.420;2023-06-22T03:38:28;19.90;99.90
64939;DHT22;51453;47.738;7.420;2023-06-22T03:40:54;19.90;99.90
64939;DHT22;51453;47.738;7.420;2023-06-22T03:43:20;19.90;99.90
64939;DHT22;51453;47.738;7.420;2023-06-22T03:45:45;19.90;99.90
64939;DHT22;51453;47.738;7.420;2023-06-22T03:48:12;19.90;99.90
64939;DHT22;51453;47.738;7.420;2023-06-22T03:50:37;19.90;99.90
64939;DHT22;51453;47.738;7.420;2023-06-22T03:53:03;19.90;99.90
64939;DHT22;51453;47.738;7.420;2023-06-22T03:55:29;19.90;99.90
64939;DHT22;51453;47.738;7.420;2023-06-22T03:57:55;20.00;99.90
64939;DHT22;51453;47.738;7.420;2023-06-22T04:00:23;20.00;99.90
64939;DHT22;51453;47.738;7.420;2023-06-22T04:02:49;20.00;99.90
64939;DHT22;51453;47.738;7.420;2023-06-22T04:05:15;20.00;99.90
64939;DHT22;51453;47.738;7.420;2023-06-22T04:07:42;20.00;99.90
64939;DHT22;51453;47.738;7.420;2023-06-22T04:10:08;20.00;99.90
64939;DHT22;51453;47.738;7.420;2023-06-22T04:12:34;20.10;99.90
64939;DHT22;51453;47.738;7.420;2023-06-22T04:15:00;20.20;99.90
64939;DHT22;51453;47.738;7.420;2023-06-22T04:17:25;20.20;99.90
64939;DHT22;51453;47.738;7.420;2023-06-22T04:19:51;20.30;99.90
64939;DHT22;51453;47.738;7.420;2023-06-22T04:22:17;20.40;99.90
64939;DHT22;51453;47.738;7.420;2023-06-22T04:24:44;20.50;99.90
64939;DHT22;51453;47.738;7.420;2023-06-22T04:27:09;20.60;99.90
64939;DHT22;51453;47.738;7.420;2023-06-22T04:29:35;20.70;99.90
64939;DHT22;51453;47.738;7.420;2023-06-22T04:32:01;20.80;99.90
64939;DHT22;51453;47.738;7.420;2023-06-22T04:34:31;20.90;99.90
64939;DHT22;51453;47.738;7.420;2023-06-22T04:36:57;21.00;99.90
64939;DHT22;51453;47.738;7.420;2023-06-22T04:39:23;21.20;99.90
64939;DHT22;51453;47.738;7.420;2023-06-22T04:41:49;21.40;99.90
64939;DHT22;51453;47.738;7.420;2023-06-22T04:44:19;21.60;99.90
64939;DHT22;51453;47.738;7.420;2023-06-22T04:46:52;21.80;99.90
64939;DHT22;51453;47.738;7.420;2023-06-22T04:49:26;22.00;99.90
64939;DHT22;51453;47.738;7.420;2023-06-22T04:51:59;22.30;99.90
64939;DHT22;51453;47.738;7.420;2023-06-22T04:54:24;22.40;99.90
64939;DHT22;51453;47.738;7.420;2023-06-22T04:56:50;22.60;99.90
64939;DHT22;51453;47.738;7.420;2023-06-22T04:59:22;22.70;99.90
64939;DHT22;51453;47.738;7.420;2023-06-22T05:01:47;22.80;99.90
64939;DHT22;51453;47.738;7.420;2023-06-22T05:04:13;22.90;99.90
64939;DHT22;51453;47.738;7.420;2023-06-22T05:06:39;23.10;99.90
64939;DHT22;51453;47.738;7.420;2023-06-22T05:09:05;23.20;99.90
64939;DHT22;51453;47.738;7.420;2023-06-22T05:11:31;23.20;99.90
64939;DHT22;51453;47.738;7.420;2023-06-22T05:13:57;23.30;99.90
64939;DHT22;51453;47.738;7.420;2023-06-22T05:16:24;23.40;99.90
64939;DHT22;51453;47.738;7.420;2023-06-22T05:18:51;23.60;99.90
64939;DHT22;51453;47.738;7.420;2023-06-22T05:21:17;23.70;99.90
64939;DHT22;51453;47.738;7.420;2023-06-22T05:23:43;23.90;99.90
64939;DHT22;51453;47.738;7.420;2023-06-22T05:26:08;24.00;99.90
64939;DHT22;51453;47.738;7.420;2023-06-22T05:28:35;24.00;99.90
64939;DHT22;51453;47.738;7.420;2023-06-22T05:31:01;24.00;99.90
64939;DHT22;51453;47.738;7.420;2023-06-22T05:33:26;24.10;99.90
64939;DHT22;51453;47.738;7.420;2023-06-22T05:35:52;24.20;99.90
64939;DHT22;51453;47.738;7.420;2023-06-22T05:38:18;24.30;99.90
64939;DHT22;51453;47.738;7.420;2023-06-22T05:40:43;24.30;99.90
64939;DHT22;51453;47.738;7.420;2023-06-22T05:43:09;24.50;99.90
64939;DHT22;51453;47.738;7.420;2023-06-22T05:45:35;24.60;99.90
64939;DHT22;51453;47.738;7.420;2023-06-22T05:48:00;24.60;99.90
64939;DHT22;51453;47.738;7.420;2023-06-22T05:50:26;24.70;99.90
64939;DHT22;51453;47.738;7.420;2023-06-22T05:52:52;24.70;99.90
64939;DHT22;51453;47.738;7.420;2023-06-22T05:55:18;24.70;99.90
64939;DHT22;51453;47.738;7.420;2023-06-22T05:57:44;24.60;99.90
64939;DHT22;51453;47.738;7.420;2023-06-22T06:00:10;24.60;99.90
64939;DHT22;51453;47.738;7.420;2023-06-22T06:02:37;24.60;99.90
64939;DHT22;51453;47.738;7.420;2023-06-22T06:05:12;24.70;99.90
64939;DHT22;51453;47.738;7.420;2023-06-22T06:07:42;24.90;99.90
64939;DHT22;51453;47.738;7.420;2023-06-22T06:10:09;25.00;99.90
64939;DHT22;51453;47.738;7.420;2023-06-22T06:12:35;25.20;99.90
64939;DHT22;51453;47.738;7.420;2023-06-22T06:15:01;25.40;99.90
64939;DHT22;51453;47.738;7.420;2023-06-22T06:17:27;25.30;99.90
64939;DHT22;51453;47.738;7.420;2023-06-22T06:19:52;25.20;99.90
64939;DHT22;51453;47.738;7.420;2023-06-22T06:22:18;25.10;99.90
64939;DHT22;51453;47.738;7.420;2023-06-22T06:24:45;24.90;99.90
64939;DHT22;51453;47.738;7.420;2023-06-22T06:27:11;24.70;99.90
64939;DHT22;51453;47.738;7.420;2023-06-22T06:29:37;24.50;99.90
64939;DHT22;51453;47.738;7.420;2023-06-22T06:32:02;24.30;99.90
64939;DHT22;51453;47.738;7.420;2023-06-22T06:34:28;23.90;99.90
64939;DHT22;51453;47.738;7.420;2023-06-22T06:36:54;23.70;99.90
64939;DHT22;51453;47.738;7.420;2023-06-22T06:39:20;23.50;99.90
64939;DHT22;51453;47.738;7.420;2023-06-22T06:41:46;23.50;99.90
64939;DHT22;51453;47.738;7.420;2023-06-22T06:44:11;23.60;99.90
64939;DHT22;51453;47.738;7.420;2023-06-22T06:46:37;23.60;99.90
64939;DHT22;51453;47.738;7.420;2023-06-22T06:49:03;23.60;99.90
64939;DHT22;51453;47.738;7.420;2023-06-22T06:51:29;23.40;99.90
64939;DHT22;51453;47.738;7.420;2023-06-22T06:53:54;23.40;99.90
64939;DHT22;51453;47.738;7.420;2023-06-22T06:56:20;23.30;99.90
64939;DHT22;51453;47.738;7.420;2023-06-22T06:58:46;23.20;99.90
64939;DHT22;51453;47.738;7.420;2023-06-22T07:01:12;23.20;99.90
64939;DHT22;51453;47.738;7.420;2023-06-22T07:03:38;23.10;99.90
64939;DHT22;51453;47.738;7.420;2023-06-22T07:06:04;23.10;99.90
64939;DHT22;51453;47.738;7.420;2023-06-22T07:08:29;23.10;99.90
64939;DHT22;51453;47.738;7.420;2023-06-22T07:10:55;23.10;99.90
64939;DHT22;51453;47.738;7.420;2023-06-22T07:13:21;23.20;99.90
64939;DHT22;51453;47.738;7.420;2023-06-22T07:15:46;23.20;99.90
64939;DHT22;51453;47.738;7.420;2023-06-22T07:18:12;23.30;99.90
64939;DHT22;51453;47.738;7.420;2023-06-22T07:20:38;23.70;99.90
64939;DHT22;51453;47.738;7.420;2023-06-22T07:23:04;23.90;99.90
64939;DHT22;51453;47.738;7.420;2023-06-22T07:25:30;24.10;99.90
64939;DHT22;51453;47.738;7.420;2023-06-22T07:30:27;24.20;99.90
64939;DHT22;51453;47.738;7.420;2023-06-22T07:32:53;24.20;99.90
64939;DHT22;51453;47.738;7.420;2023-06-22T07:35:18;24.10;99.90
64939;DHT22;51453;47.738;7.420;2023-06-22T07:37:44;24.00;99.90
64939;DHT22;51453;47.738;7.420;2023-06-22T07:40:10;24.10;99.90
64939;DHT22;51453;47.738;7.420;2023-06-22T07:42:36;24.00;99.90
64939;DHT22;51453;47.738;7.420;2023-06-22T07:45:02;24.00;99.90
64939;DHT22;51453;47.738;7.420;2023-06-22T07:47:28;24.00;99.90
64939;DHT22;51453;47.738;7.420;2023-06-22T07:49:55;24.00;99.90
64939;DHT22;51453;47.738;7.420;2023-06-22T07:52:23;24.20;99.90
64939;DHT22;51453;47.738;7.420;2023-06-22T07:54:49;24.30;99.90
64939;DHT22;51453;47.738;7.420;2023-06-22T07:57:14;24.30;99.90
64939;DHT22;51453;47.738;7.420;2023-06-22T07:59:40;24.20;99.90
64939;DHT22;51453;47.738;7.420;2023-06-22T08:02:06;24.20;99.90
64939;DHT22;51453;47.738;7.420;2023-06-22T08:04:33;24.20;99.90
64939;DHT22;51453;47.738;7.420;2023-06-22T08:07:00;24.30;99.90
64939;DHT22;51453;47.738;7.420;2023-06-22T08:09:28;24.30;99.90
64939;DHT22;51453;47.738;7.420;2023-06-22T08:11:54;24.60;99.90
64939;DHT22;51453;47.738;7.420;2023-06-22T08:14:22;24.70;99.90
64939;DHT22;51453;47.738;7.420;2023-06-22T08:16:48;24.80;99.90
64939;DHT22;51453;47.738;7.420;2023-06-22T08:19:14;24.90;99.90
64939;DHT22;51453;47.738;7.420;2023-06-22T08:21:39;25.00;99.90
64939;DHT22;51453;47.738;7.420;2023-06-22T08:24:05;25.10;99.90
64939;DHT22;51453;47.738;7.420;2023-06-22T08:26:32;25.30;99.90
64939;DHT22;51453;47.738;7.420;2023-06-22T08:29:02;25.30;99.90
64939;DHT22;51453;47.738;7.420;2023-06-22T08:31:27;25.30;99.90
64939;DHT22;51453;47.738;7.420;2023-06-22T08:33:53;25.20;99.90
64939;DHT22;51453;47.738;7.420;2023-06-22T08:36:19;25.30;99.90
64939;DHT22;51453;47.738;7.420;2023-06-22T08:38:44;25.20;99.90
64939;DHT22;51453;47.738;7.420;2023-06-22T08:41:10;25.00;99.90
64939;DHT22;51453;47.738;7.420;2023-06-22T08:43:36;25.00;99.90
64939;DHT22;51453;47.738;7.420;2023-06-22T08:46:01;25.10;99.90
64939;DHT22;51453;47.738;7.420;2023-06-22T08:48:28;25.00;99.90
64939;DHT22;51453;47.738;7.420;2023-06-22T08:50:54;25.00;99.90
64939;DHT22;51453;47.738;7.420;2023-06-22T08:53:19;24.90;99.90
64939;DHT22;51453;47.738;7.420;2023-06-22T08:55:45;24.90;99.90
64939;DHT22;51453;47.738;7.420;2023-06-22T08:58:11;25.00;99.90
64939;DHT22;51453;47.738;7.420;2023-06-22T09:00:36;24.90;99.90
64939;DHT22;51453;47.738;7.420;2023-06-22T09:03:02;25.10;99.90
64939;DHT22;51453;47.738;7.420;2023-06-22T09:05:28;25.00;99.90
64939;DHT22;51453;47.738;7.420;2023-06-22T09:07:56;25.10;99.90
64939;DHT22;51453;47.738;7.420;2023-06-22T09:10:22;25.10;99.90
64939;DHT22;51453;47.738;7.420;2023-06-22T09:12:47;25.10;99.90
64939;DHT22;51453;47.738;7.420;2023-06-22T09:15:13;25.10;99.90
64939;DHT22;51453;47.738;7.420;2023-06-22T09:17:40;25.10;99.90
64939;DHT22;51453;47.738;7.420;2023-06-22T09:20:06;25.10;99.90
64939;DHT22;51453;47.738;7.420;2023-06-22T09:22:34;25.10;99.90
64939;DHT22;51453;47.738;7.420;2023-06-22T09:24:59;25.00;99.90
64939;DHT22;51453;47.738;7.420;2023-06-22T09:27:25;25.10;99.90
64939;DHT22;51453;47.738;7.420;2023-06-22T09:29:51;25.10;99.90
64939;DHT22;51453;47.738;7.420;2023-06-22T09:32:16;25.20;99.90
64939;DHT22;51453;47.738;7.420;2023-06-22T09:34:42;25.30;99.90
64939;DHT22;51453;47.738;7.420;2023-06-22T09:37:07;25.50;99.90
64939;DHT22;51453;47.738;7.420;2023-06-22T09:39:33;25.50;99.90
64939;DHT22;51453;47.738;7.420;2023-06-22T09:41:59;25.60;99.90
64939;DHT22;51453;47.738;7.420;2023-06-22T09:44:25;25.80;99.90
64939;DHT22;51453;47.738;7.420;2023-06-22T09:46:51;25.90;99.90
64939;DHT22;51453;47.738;7.420;2023-06-22T09:49:17;26.10;99.90
64939;DHT22;51453;47.738;7.420;2023-06-22T09:51:43;26.20;99.90
64939;DHT22;51453;47.738;7.420;2023-06-22T09:54:08;26.30;99.90
64939;DHT22;51453;47.738;7.420;2023-06-22T09:56:34;26.20;99.90
64939;DHT22;51453;47.738;7.420;2023-06-22T09:58:59;26.30;99.90
64939;DHT22;51453;47.738;7.420;2023-06-22T10:01:25;26.30;99.90
64939;DHT22;51453;47.738;7.420;2023-06-22T10:03:52;26.40;99.90
64939;DHT22;51453;47.738;7.420;2023-06-22T10:06:22;26.30;99.90
64939;DHT22;51453;47.738;7.420;2023-06-22T10:08:47;26.20;99.90
64939;DHT22;51453;47.738;7.420;2023-06-22T10:11:16;26.10;99.90
64939;DHT22;51453;47.738;7.420;2023-06-22T10:13:41;25.90;99.90
64939;DHT22;51453;47.738;7.420;2023-06-22T10:16:07;25.80;99.90
64939;DHT22;51453;47.738;7.420;2023-06-22T10:18:33;25.70;99.90
64939;DHT22;51453;47.738;7.420;2023-06-22T10:20:58;25.60;99.90
64939;DHT22;51453;47.738;7.420;2023-06-22T10:23:24;25.50;99.90
64939;DHT22;51453;47.738;7.420;2023-06-22T10:25:49;25.60;99.90
64939;DHT22;51453;47.738;7.420;2023-06-22T10:28:15;25.60;99.90
64939;DHT22;51453;47.738;7.420;2023-06-22T10:30:41;25.70;99.90
64939;DHT22;51453;47.738;7.420;2023-06-22T10:33:08;25.70;99.90
64939;DHT22;51453;47.738;7.420;2023-06-22T10:35:34;25.80;99.90
64939;DHT22;51453;47.738;7.420;2023-06-22T10:38:00;25.90;99.90
64939;DHT22;51453;47.738;7.420;2023-06-22T10:40:25;25.90;99.90
64939;DHT22;51453;47.738;7.420;2023-06-22T10:42:51;26.10;99.90
64939;DHT22;51453;47.738;7.420;2023-06-22T10:45:17;26.20;99.90
64939;DHT22;51453;47.738;7.420;2023-06-22T10:47:42;26.30;99.90
64939;DHT22;51453;47.738;7.420;2023-06-22T10:50:08;26.40;99.90
64939;DHT22;51453;47.738;7.420;2023-06-22T10:52:34;26.50;99.90
64939;DHT22;51453;47.738;7.420;2023-06-22T10:55:00;26.60;99.90
64939;DHT22;51453;47.738;7.420;2023-06-22T10:57:25;26.60;99.90
64939;DHT22;51453;47.738;7.420;2023-06-22T10:59:51;26.60;99.90
64939;DHT22;51453;47.738;7.420;2023-06-22T11:02:16;26.40;99.90
64939;DHT22;51453;47.738;7.420;2023-06-22T11:04:42;26.30;99.90
64939;DHT22;51453;47.738;7.420;2023-06-22T11:07:09;26.20;99.90
64939;DHT22;51453;47.738;7.420;2023-06-22T11:09:34;26.20;99.90
64939;DHT22;51453;47.738;7.420;2023-06-22T11:12:00;26.30;99.90
64939;DHT22;51453;47.738;7.420;2023-06-22T11:14:26;26.40;99.90
64939;DHT22;51453;47.738;7.420;2023-06-22T11:16:51;26.50;99.90
64939;DHT22;51453;47.738;7.420;2023-06-22T11:19:18;26.50;99.90
64939;DHT22;51453;47.738;7.420;2023-06-22T11:21:43;26.60;99.90
64939;DHT22;51453;47.738;7.420;2023-06-22T11:24:09;26.70;99.90
64939;DHT22;51453;47.738;7.420;2023-06-22T11:26:35;26.80;99.90
64939;DHT22;51453;47.738;7.420;2023-06-22T11:29:01;26.90;99.90
64939;DHT22;51453;47.738;7.420;2023-06-22T11:31:31;27.00;99.90
64939;DHT22;51453;47.738;7.420;2023-06-22T11:33:56;27.10;99.90
64939;DHT22;51453;47.738;7.420;2023-06-22T11:36:22;27.10;99.90
64939;DHT22;51453;47.738;7.420;2023-06-22T11:38:48;27.10;99.90
64939;DHT22;51453;47.738;7.420;2023-06-22T11:41:13;27.10;99.90
64939;DHT22;51453;47.738;7.420;2023-06-22T11:43:39;27.00;99.90
64939;DHT22;51453;47.738;7.420;2023-06-22T11:46:04;26.80;99.90
64939;DHT22;51453;47.738;7.420;2023-06-22T11:48:30;26.70;99.90
64939;DHT22;51453;47.738;7.420;2023-06-22T11:50:56;26.70;99.90
64939;DHT22;51453;47.738;7.420;2023-06-22T11:53:24;26.70;99.90
64939;DHT22;51453;47.738;7.420;2023-06-22T11:55:50;26.70;99.90
64939;DHT22;51453;47.738;7.420;2023-06-22T11:58:16;26.60;99.90
64939;DHT22;51453;47.738;7.420;2023-06-22T12:00:42;26.50;99.90
64939;DHT22;51453;47.738;7.420;2023-06-22T12:03:08;26.40;99.90
64939;DHT22;51453;47.738;7.420;2023-06-22T12:05:34;26.30;99.90
64939;DHT22;51453;47.738;7.420;2023-06-22T12:08:00;26.20;99.90
64939;DHT22;51453;47.738;7.420;2023-06-22T12:10:26;26.10;99.90
64939;DHT22;51453;47.738;7.420;2023-06-22T12:12:54;26.10;99.90
64939;DHT22;51453;47.738;7.420;2023-06-22T12:15:20;26.00;99.90
64939;DHT22;51453;47.738;7.420;2023-06-22T12:17:45;26.00;99.90
64939;DHT22;51453;47.738;7.420;2023-06-22T12:20:13;26.00;99.90
64939;DHT22;51453;47.738;7.420;2023-06-22T12:22:39;26.00;99.90
64939;DHT22;51453;47.738;7.420;2023-06-22T12:25:05;25.90;99.90
64939;DHT22;51453;47.738;7.420;2023-06-22T12:27:30;25.90;99.90
64939;DHT22;51453;47.738;7.420;2023-06-22T12:29:56;26.00;99.90
64939;DHT22;51453;47.738;7.420;2023-06-22T12:32:22;25.90;99.90
64939;DHT22;51453;47.738;7.420;2023-06-22T12:34:47;25.90;99.90
64939;DHT22;51453;47.738;7.420;2023-06-22T12:37:13;26.00;99.90
64939;DHT22;51453;47.738;7.420;2023-06-22T12:39:40;26.00;99.90
64939;DHT22;51453;47.738;7.420;2023-06-22T12:42:06;26.00;99.90
64939;DHT22;51453;47.738;7.420;2023-06-22T12:44:34;26.10;99.90
64939;DHT22;51453;47.738;7.420;2023-06-22T12:47:00;26.20;99.90
64939;DHT22;51453;47.738;7.420;2023-06-22T12:49:25;26.30;99.90
64939;DHT22;51453;47.738;7.420;2023-06-22T12:51:51;26.50;99.90
64939;DHT22;51453;47.738;7.420;2023-06-22T12:54:17;26.60;99.90
64939;DHT22;51453;47.738;7.420;2023-06-22T12:56:42;26.70;99.90
64939;DHT22;51453;47.738;7.420;2023-06-22T12:59:11;26.70;99.90
64939;DHT22;51453;47.738;7.420;2023-06-22T13:01:36;26.70;99.90
64939;DHT22;51453;47.738;7.420;2023-06-22T13:04:02;26.70;99.90
64939;DHT22;51453;47.738;7.420;2023-06-22T13:06:28;26.70;99.90
64939;DHT22;51453;47.738;7.420;2023-06-22T13:08:54;26.90;99.90
64939;DHT22;51453;47.738;7.420;2023-06-22T13:11:19;26.90;99.90
64939;DHT22;51453;47.738;7.420;2023-06-22T13:13:46;26.90;99.90
64939;DHT22;51453;47.738;7.420;2023-06-22T13:16:12;26.90;99.90
64939;DHT22;51453;47.738;7.420;2023-06-22T13:18:37;26.80;99.90
64939;DHT22;51453;47.738;7.420;2023-06-22T13:21:04;26.80;99.90
64939;DHT22;51453;47.738;7.420;2023-06-22T13:23:29;26.90;99.90
64939;DHT22;51453;47.738;7.420;2023-06-22T13:25:55;26.80;99.90
64939;DHT22;51453;47.738;7.420;2023-06-22T13:28:21;26.70;99.90
64939;DHT22;51453;47.738;7.420;2023-06-22T13:30:47;26.60;99.90
64939;DHT22;51453;47.738;7.420;2023-06-22T13:33:16;26.60;99.90
64939;DHT22;51453;47.738;7.420;2023-06-22T13:35:42;26.70;99.90
64939;DHT22;51453;47.738;7.420;2023-06-22T13:38:08;26.90;99.90
64939;DHT22;51453;47.738;7.420;2023-06-22T13:40:35;27.00;99.90
64939;DHT22;51453;47.738;7.420;2023-06-22T13:43:00;27.10;99.90
64939;DHT22;51453;47.738;7.420;2023-06-22T13:45:26;27.20;99.90
64939;DHT22;51453;47.738;7.420;2023-06-22T13:47:52;27.30;99.90
64939;DHT22;51453;47.738;7.420;2023-06-22T13:50:18;27.20;99.90
64939;DHT22;51453;47.738;7.420;2023-06-22T13:52:43;27.20;99.90
64939;DHT22;51453;47.738;7.420;2023-06-22T13:55:09;27.10;99.90
64939;DHT22;51453;47.738;7.420;2023-06-22T13:57:35;27.00;99.90
64939;DHT22;51453;47.738;7.420;2023-06-22T14:00:01;26.80;99.90
64939;DHT22;51453;47.738;7.420;2023-06-22T14:02:29;26.90;99.90
64939;DHT22;51453;47.738;7.420;2023-06-22T14:04:54;26.90;99.90
64939;DHT22;51453;47.738;7.420;2023-06-22T14:07:20;27.10;99.90
64939;DHT22;51453;47.738;7.420;2023-06-22T14:09:46;27.30;99.90
64939;DHT22;51453;47.738;7.420;2023-06-22T14:12:12;27.50;99.90
64939;DHT22;51453;47.738;7.420;2023-06-22T14:14:38;27.60;99.90
64939;DHT22;51453;47.738;7.420;2023-06-22T14:17:04;27.60;99.90
64939;DHT22;51453;47.738;7.420;2023-06-22T14:19:30;27.80;99.90
64939;DHT22;51453;47.738;7.420;2023-06-22T14:21:55;28.00;99.90
64939;DHT22;51453;47.738;7.420;2023-06-22T14:24:22;28.20;99.90
64939;DHT22;51453;47.738;7.420;2023-06-22T14:26:48;28.30;99.90
64939;DHT22;51453;47.738;7.420;2023-06-22T14:29:14;28.40;99.90
64939;DHT22;51453;47.738;7.420;2023-06-22T14:31:39;28.50;99.90
64939;DHT22;51453;47.738;7.420;2023-06-22T14:34:05;28.30;99.90
64939;DHT22;51453;47.738;7.420;2023-06-22T14:36:31;28.40;99.90
64939;DHT22;51453;47.738;7.420;2023-06-22T14:38:57;28.50;99.90
64939;DHT22;51453;47.738;7.420;2023-06-22T14:41:23;28.70;99.90
64939;DHT22;51453;47.738;7.420;2023-06-22T14:43:49;28.80;99.90
64939;DHT22;51453;47.738;7.420;2023-06-22T14:46:15;28.90;99.90
64939;DHT22;51453;47.738;7.420;2023-06-22T14:48:41;28.90;99.90
64939;DHT22;51453;47.738;7.420;2023-06-22T14:51:08;28.70;99.90
64939;DHT22;51453;47.738;7.420;2023-06-22T14:53:35;28.60;99.90
64939;DHT22;51453;47.738;7.420;2023-06-22T14:56:00;28.70;99.90
64939;DHT22;51453;47.738;7.420;2023-06-22T14:58:31;28.70;99.90
64939;DHT22;51453;47.738;7.420;2023-06-22T15:01:01;28.70;99.90
64939;DHT22;51453;47.738;7.420;2023-06-22T15:03:26;28.60;99.90
64939;DHT22;51453;47.738;7.420;2023-06-22T15:05:54;28.60;99.90
64939;DHT22;51453;47.738;7.420;2023-06-22T15:08:20;28.50;99.90
64939;DHT22;51453;47.738;7.420;2023-06-22T15:10:46;28.20;99.90
64939;DHT22;51453;47.738;7.420;2023-06-22T15:13:12;28.20;99.90
64939;DHT22;51453;47.738;7.420;2023-06-22T15:15:38;28.10;99.90
64939;DHT22;51453;47.738;7.420;2023-06-22T15:18:03;28.00;99.90
64939;DHT22;51453;47.738;7.420;2023-06-22T15:20:29;28.00;99.90
64939;DHT22;51453;47.738;7.420;2023-06-22T15:22:56;27.90;99.90
64939;DHT22;51453;47.738;7.420;2023-06-22T15:25:22;27.90;99.90
64939;DHT22;51453;47.738;7.420;2023-06-22T15:27:47;27.80;99.90
64939;DHT22;51453;47.738;7.420;2023-06-22T15:30:13;27.80;99.90